sensor_id;sensor_type;location;lat;lon;timestamp;pressure;altitude;pressure_sealevel;temperature;humidity
48386;BME280;34644;47.964;7.982;2023-04-22T00:01:16;95939.09;;;15.59;64.67
48386;BME280;34644;47.964;7.982;2023-04-22T00:08:17;95940.41;;;15.61;64.64
48386;BME280;34644;47.964;7.982;2023-04-22T00:15:17;95941.19;;;15.62;64.61
48386;BME280;34644;47.964;7.982;2023-04-22T00:22:20;95933.22;;;15.62;64.87
48386;BME280;34644;47.964;7.982;2023-04-22T00:29:20;95937.47;;;15.63;64.74
48386;BME280;34644;47.964;7.982;2023-04-22T00:36:21;95925.25;;;15.62;64.89
48386;BME280;34644;47.964;7.982;2023-04-22T00:43:21;95932.16;;;15.63;64.89
48386;BME280;34644;47.964;7.982;2023-04-22T00:50:22;95934.81;;;15.63;64.85
48386;BME280;34644;47.964;7.982;2023-04-22T00:57:22;95929.50;;;15.63;64.97
48386;BME280;34644;47.964;7.982;2023-04-22T01:04:23;95926.84;;;15.63;65.07
48386;BME280;34644;47.964;7.982;2023-04-22T01:11:23;95921.53;;;15.63;65.09
48386;BME280;34644;47.964;7.982;2023-04-22T01:18:24;95918.88;;;15.63;65.08
48386;BME280;34644;47.964;7.982;2023-04-22T01:25:25;95918.06;;;15.62;64.86
48386;BME280;34644;47.964;7.982;2023-04-22T01:32:25;95918.88;;;15.63;65.07
48386;BME280;34644;47.964;7.982;2023-04-22T01:39:25;95923.38;;;15.62;64.99
48386;BME280;34644;47.964;7.982;2023-04-22T01:46:26;95921.81;;;15.61;64.90
48386;BME280;34644;47.964;7.982;2023-04-22T01:53:26;95929.50;;;15.63;64.99
48386;BME280;34644;47.964;7.982;2023-04-22T02:00:26;95936.66;;;15.62;64.99
48386;BME280;34644;47.964;7.982;2023-04-22T02:07:27;95946.22;;;15.63;64.96
48386;BME280;34644;47.964;7.982;2023-04-22T02:14:27;95944.63;;;15.62;64.91
48386;BME280;34644;47.964;7.982;2023-04-22T02:21:28;95957.63;;;15.64;64.96
48386;BME280;34644;47.964;7.982;2023-04-22T02:28:28;95962.16;;;15.63;65.01
48386;BME280;34644;47.964;7.982;2023-04-22T02:35:29;95960.56;;;15.62;65.02
48386;BME280;34644;47.964;7.982;2023-04-22T02:42:29;95961.38;;;15.63;64.90
48386;BME280;34644;47.964;7.982;2023-04-22T02:49:29;95968.25;;;15.64;64.84
48386;BME280;34644;47.964;7.982;2023-04-22T02:56:30;95982.34;;;15.64;64.96
48386;BME280;34644;47.964;7.982;2023-04-22T03:03:30;95986.06;;;15.63;65.05
48386;BME280;34644;47.964;7.982;2023-04-22T03:10:31;95978.88;;;15.64;65.14
48386;BME280;34644;47.964;7.982;2023-04-22T03:17:31;95983.41;;;15.63;64.94
48386;BME280;34644;47.964;7.982;2023-04-22T03:24:35;95977.03;;;15.64;64.90
48386;BME280;34644;47.964;7.982;2023-04-22T03:31:39;95977.81;;;15.65;64.91
48386;BME280;34644;47.964;7.982;2023-04-22T03:38:39;95972.50;;;15.65;64.98
48386;BME280;34644;47.964;7.982;2023-04-22T03:45:40;95969.06;;;15.64;65.06
48386;BME280;34644;47.964;7.982;2023-04-22T03:52:50;95978.59;;;15.65;64.87
48386;BME280;34644;47.964;7.982;2023-04-22T03:59:53;95978.59;;;15.65;65.07
48386;BME280;34644;47.964;7.982;2023-04-22T04:06:54;95968.78;;;15.66;64.99
48386;BME280;34644;47.964;7.982;2023-04-22T04:13:54;95972.22;;;15.66;65.01
48386;BME280;34644;47.964;7.982;2023-04-22T04:21:00;95967.69;;;15.67;65.10
48386;BME280;34644;47.964;7.982;2023-04-22T04:28:04;95964.25;;;15.66;65.06
48386;BME280;34644;47.964;7.982;2023-04-22T04:35:08;95967.69;;;15.67;65.04
48386;BME280;34644;47.964;7.982;2023-04-22T04:42:09;95959.72;;;15.67;65.04
48386;BME280;34644;47.964;7.982;2023-04-22T04:49:19;95958.66;;;15.68;65.01
48386;BME280;34644;47.964;7.982;2023-04-22T04:56:26;95962.63;;;15.70;64.88
48386;BME280;34644;47.964;7.982;2023-04-22T05:03:27;95967.66;;;15.72;65.14
48386;BME280;34644;47.964;7.982;2023-04-22T05:10:28;95963.13;;;15.72;65.28
48386;BME280;34644;47.964;7.982;2023-04-22T05:17:30;95968.16;;;15.74;65.19
48386;BME280;34644;47.964;7.982;2023-04-22T05:24:30;95968.94;;;15.74;65.35
48386;BME280;34644;47.964;7.982;2023-04-22T05:31:32;95973.91;;;15.57;60.24
48386;BME280;34644;47.964;7.982;2023-04-22T05:38:32;95973.97;;;15.52;61.68
48386;BME280;34644;47.964;7.982;2023-04-22T05:45:34;95966.69;;;15.63;63.19
48386;BME280;34644;47.964;7.982;2023-04-22T05:52:35;95973.56;;;15.64;63.59
48386;BME280;34644;47.964;7.982;2023-04-22T05:59:41;95979.13;;;15.67;63.67
48386;BME280;34644;47.964;7.982;2023-04-22T06:06:41;95983.06;;;15.70;63.68
48386;BME280;34644;47.964;7.982;2023-04-22T06:13:41;95982.00;;;15.71;63.90
48386;BME280;34644;47.964;7.982;2023-04-22T06:20:43;95982.50;;;15.73;63.76
48386;BME280;34644;47.964;7.982;2023-04-22T06:27:45;95984.88;;;15.80;63.89
48386;BME280;34644;47.964;7.982;2023-04-22T06:34:50;95991.50;;;15.82;64.05
48386;BME280;34644;47.964;7.982;2023-04-22T06:41:50;95985.69;;;15.80;64.00
48386;BME280;34644;47.964;7.982;2023-04-22T06:49:26;95994.72;;;15.79;63.77
48386;BME280;34644;47.964;7.982;2023-04-22T06:56:53;96005.84;;;15.81;63.42
48386;BME280;34644;47.964;7.982;2023-04-22T07:03:54;96007.44;;;15.82;63.18
48386;BME280;34644;47.964;7.982;2023-04-22T07:10:54;95998.19;;;15.80;62.58
48386;BME280;34644;47.964;7.982;2023-04-22T07:18:07;95992.69;;;15.66;58.49
48386;BME280;34644;47.964;7.982;2023-04-22T07:25:08;95996.47;;;15.60;57.35
48386;BME280;34644;47.964;7.982;2023-04-22T07:32:08;95992.34;;;15.72;59.16
48386;BME280;34644;47.964;7.982;2023-04-22T07:39:08;95988.84;;;15.82;59.98
48386;BME280;34644;47.964;7.982;2023-04-22T07:46:09;95989.06;;;15.86;59.02
48386;BME280;34644;47.964;7.982;2023-04-22T07:53:09;95986.41;;;15.86;58.19
48386;BME280;34644;47.964;7.982;2023-04-22T08:00:10;95986.50;;;16.00;56.42
48386;BME280;34644;47.964;7.982;2023-04-22T08:07:13;95981.47;;;15.98;56.78
48386;BME280;34644;47.964;7.982;2023-04-22T08:14:13;95994.31;;;16.15;48.77
48386;BME280;34644;47.964;7.982;2023-04-22T08:21:14;95991.59;;;16.20;50.96
48386;BME280;34644;47.964;7.982;2023-04-22T08:28:14;95986.84;;;16.17;55.70
48386;BME280;34644;47.964;7.982;2023-04-22T08:35:15;95971.22;;;16.35;55.95
48386;BME280;34644;47.964;7.982;2023-04-22T08:42:15;95970.44;;;16.53;52.27
48386;BME280;34644;47.964;7.982;2023-04-22T08:49:16;95960.56;;;16.35;55.76
48386;BME280;34644;47.964;7.982;2023-04-22T08:56:16;95971.06;;;16.26;55.79
48386;BME280;34644;47.964;7.982;2023-04-22T09:03:16;95960.72;;;16.24;57.07
48386;BME280;34644;47.964;7.982;2023-04-22T09:10:17;95961.22;;;16.26;57.56
48386;BME280;34644;47.964;7.982;2023-04-22T09:17:28;95958.00;;;16.30;57.87
48386;BME280;34644;47.964;7.982;2023-04-22T09:24:28;95964.81;;;16.36;58.03
48386;BME280;34644;47.964;7.982;2023-04-22T09:31:28;95957.06;;;16.39;58.09
48386;BME280;34644;47.964;7.982;2023-04-22T09:38:29;95946.13;;;16.41;58.40
48386;BME280;34644;47.964;7.982;2023-04-22T09:45:30;95948.44;;;16.48;58.39
48386;BME280;34644;47.964;7.982;2023-04-22T09:52:31;95956.66;;;16.51;58.60
48386;BME280;34644;47.964;7.982;2023-04-22T09:59:31;95966.19;;;16.52;58.80
48386;BME280;34644;47.964;7.982;2023-04-22T10:06:32;95964.34;;;16.53;58.95
48386;BME280;34644;47.964;7.982;2023-04-22T10:13:32;95957.94;;;16.54;59.06
48386;BME280;34644;47.964;7.982;2023-04-22T10:20:35;95957.94;;;16.54;59.09
48386;BME280;34644;47.964;7.982;2023-04-22T10:27:37;95945.34;;;16.59;59.11
48386;BME280;34644;47.964;7.982;2023-04-22T10:34:37;95946.59;;;16.67;58.99
48386;BME280;34644;47.964;7.982;2023-04-22T10:41:41;95953.19;;;16.70;59.06
48386;BME280;34644;47.964;7.982;2023-04-22T10:48:49;95957.72;;;16.69;59.29
48386;BME280;34644;47.964;7.982;2023-04-22T10:55:50;95942.81;;;16.68;59.33
48386;BME280;34644;47.964;7.982;2023-04-22T11:03:09;95955.63;;;16.66;59.47
48386;BME280;34644;47.964;7.982;2023-04-22T11:10:10;95958.88;;;16.63;59.68
48386;BME280;34644;47.964;7.982;2023-04-22T11:17:16;95985.75;;;16.61;59.78
48386;BME280;34644;47.964;7.982;2023-04-22T11:24:18;95976.22;;;16.60;59.93
48386;BME280;34644;47.964;7.982;2023-04-22T11:31:19;95982.31;;;16.61;59.85
48386;BME280;34644;47.964;7.982;2023-04-22T11:38:19;95972.47;;;16.61;59.95
48386;BME280;34644;47.964;7.982;2023-04-22T11:45:20;95979.38;;;16.62;59.93
48386;BME280;34644;47.964;7.982;2023-04-22T11:52:23;95962.03;;;16.65;59.93
48386;BME280;34644;47.964;7.982;2023-04-22T11:59:23;95965.22;;;16.67;60.12
48386;BME280;34644;47.964;7.982;2023-04-22T12:06:24;95977.38;;;16.73;58.76
48386;BME280;34644;47.964;7.982;2023-04-22T12:13:28;95968.56;;;16.73;57.76
48386;BME280;34644;47.964;7.982;2023-04-22T12:20:35;95956.06;;;16.73;57.11
48386;BME280;34644;47.964;7.982;2023-04-22T12:27:36;95978.59;;;16.81;55.34
48386;BME280;34644;47.964;7.982;2023-04-22T12:34:36;95981.84;;;16.97;54.42
48386;BME280;34644;47.964;7.982;2023-04-22T12:41:36;95980.16;;;16.82;57.11
48386;BME280;34644;47.964;7.982;2023-04-22T12:48:37;95971.88;;;16.83;57.82
48386;BME280;34644;47.964;7.982;2023-04-22T12:55:37;95959.66;;;16.82;58.25
48386;BME280;34644;47.964;7.982;2023-04-22T13:02:41;95965.78;;;16.83;58.60
48386;BME280;34644;47.964;7.982;2023-04-22T13:09:42;95959.66;;;16.82;58.76
48386;BME280;34644;47.964;7.982;2023-04-22T13:16:42;95966.56;;;16.83;58.82
48386;BME280;34644;47.964;7.982;2023-04-22T13:23:43;95967.88;;;16.86;58.95
48386;BME280;34644;47.964;7.982;2023-04-22T13:30:43;95962.28;;;16.88;59.12
48386;BME280;34644;47.964;7.982;2023-04-22T13:37:44;95955.00;;;16.93;59.05
48386;BME280;34644;47.964;7.982;2023-04-22T13:44:45;95951.84;;;16.91;59.36
48386;BME280;34644;47.964;7.982;2023-04-22T13:51:46;95955.28;;;16.92;59.33
48386;BME280;34644;47.964;7.982;2023-04-22T13:58:46;95950.69;;;16.97;59.16
48386;BME280;34644;47.964;7.982;2023-04-22T14:05:47;95958.97;;;16.96;59.48
48386;BME280;34644;47.964;7.982;2023-04-22T14:12:47;95959.25;;;16.94;59.68
48386;BME280;34644;47.964;7.982;2023-04-22T14:19:48;95954.00;;;16.89;59.79
48386;BME280;34644;47.964;7.982;2023-04-22T14:26:49;95952.72;;;16.87;59.79
48386;BME280;34644;47.964;7.982;2023-04-22T14:33:51;95956.97;;;16.88;59.86
48386;BME280;34644;47.964;7.982;2023-04-22T14:40:51;95947.88;;;16.89;59.85
48386;BME280;34644;47.964;7.982;2023-04-22T14:47:51;95958.22;;;16.90;59.98
48386;BME280;34644;47.964;7.982;2023-04-22T14:54:52;95952.41;;;16.88;59.99
48386;BME280;34644;47.964;7.982;2023-04-22T15:01:52;95959.91;;;16.86;60.10
48386;BME280;34644;47.964;7.982;2023-04-22T15:08:53;95962.03;;;16.84;60.29
48386;BME280;34644;47.964;7.982;2023-04-22T15:15:54;95970.31;;;16.82;60.37
48386;BME280;34644;47.964;7.982;2023-04-22T15:22:56;95980.16;;;16.82;60.25
48386;BME280;34644;47.964;7.982;2023-04-22T15:29:56;96013.97;;;16.81;60.29
48386;BME280;34644;47.964;7.982;2023-04-22T15:36:56;96031.00;;;16.80;60.40
48386;BME280;34644;47.964;7.982;2023-04-22T15:43:57;96045.91;;;16.81;60.46
48386;BME280;34644;47.964;7.982;2023-04-22T15:50:57;96049.88;;;16.84;60.66
48386;BME280;34644;47.964;7.982;2023-04-22T15:57:58;96067.97;;;16.82;60.95
48386;BME280;34644;47.964;7.982;2023-04-22T16:04:59;96056.53;;;16.81;61.22
48386;BME280;34644;47.964;7.982;2023-04-22T16:11:59;96045.13;;;16.81;61.56
48386;BME280;34644;47.964;7.982;2023-04-22T16:19:00;96044.03;;;16.82;61.92
48386;BME280;34644;47.964;7.982;2023-04-22T16:26:01;96060.81;;;16.82;61.97
48386;BME280;34644;47.964;7.982;2023-04-22T16:33:03;96061.09;;;16.81;62.23
48386;BME280;34644;47.964;7.982;2023-04-22T16:40:04;96061.09;;;16.81;62.23
48386;BME280;34644;47.964;7.982;2023-04-22T16:47:05;96059.19;;;16.81;62.57
48386;BME280;34644;47.964;7.982;2023-04-22T16:54:05;96062.66;;;16.82;62.30
48386;BME280;34644;47.964;7.982;2023-04-22T17:01:06;96065.31;;;16.82;62.48
48386;BME280;34644;47.964;7.982;2023-04-22T17:08:06;96069.06;;;16.81;62.51
48386;BME280;34644;47.964;7.982;2023-04-22T17:15:07;96067.97;;;16.82;62.72
48386;BME280;34644;47.964;7.982;2023-04-22T17:22:08;96062.38;;;16.83;63.21
48386;BME280;34644;47.964;7.982;2023-04-22T17:29:08;96069.28;;;16.85;63.69
48386;BME280;34644;47.964;7.982;2023-04-22T17:36:09;96063.97;;;16.85;64.14
48386;BME280;34644;47.964;7.982;2023-04-22T17:43:09;96056.75;;;16.85;64.19
48386;BME280;34644;47.964;7.982;2023-04-22T17:50:09;96072.72;;;16.85;64.43
48386;BME280;34644;47.964;7.982;2023-04-22T17:57:10;96075.38;;;16.85;64.67
48386;BME280;34644;47.964;7.982;2023-04-22T18:04:11;96085.78;;;16.87;64.79
48386;BME280;34644;47.964;7.982;2023-04-22T18:11:12;96071.41;;;16.88;65.15
48386;BME280;34644;47.964;7.982;2023-04-22T18:18:12;96054.34;;;16.89;65.55
48386;BME280;34644;47.964;7.982;2023-04-22T18:25:15;96079.88;;;16.90;65.80
48386;BME280;34644;47.964;7.982;2023-04-22T18:32:15;96093.97;;;16.90;65.88
48386;BME280;34644;47.964;7.982;2023-04-22T18:39:15;96097.16;;;16.92;65.81
48386;BME280;34644;47.964;7.982;2023-04-22T18:46:16;96094.22;;;16.94;66.27
48386;BME280;34644;47.964;7.982;2023-04-22T18:53:16;96086.22;;;16.94;66.60
48386;BME280;34644;47.964;7.982;2023-04-22T19:00:16;96105.63;;;16.94;66.68
48386;BME280;34644;47.964;7.982;2023-04-22T19:07:17;96113.06;;;16.97;66.09
48386;BME280;34644;47.964;7.982;2023-04-22T19:14:17;96102.47;;;16.92;65.89
48386;BME280;34644;47.964;7.982;2023-04-22T19:21:17;96107.00;;;16.92;65.78
48386;BME280;34644;47.964;7.982;2023-04-22T19:28:18;96114.19;;;16.91;65.63
48386;BME280;34644;47.964;7.982;2023-04-22T19:35:19;96106.22;;;16.91;65.92
48386;BME280;34644;47.964;7.982;2023-04-22T19:42:19;96105.44;;;16.91;65.74
48386;BME280;34644;47.964;7.982;2023-04-22T19:49:20;96109.16;;;16.90;64.72
48386;BME280;34644;47.964;7.982;2023-04-22T19:56:20;96105.72;;;16.89;64.84
48386;BME280;34644;47.964;7.982;2023-04-22T20:03:20;96109.44;;;16.88;64.73
48386;BME280;34644;47.964;7.982;2023-04-22T20:10:21;96112.88;;;16.89;64.60
48386;BME280;34644;47.964;7.982;2023-04-22T20:17:22;96112.88;;;16.89;64.53
48386;BME280;34644;47.964;7.982;2023-04-22T20:24:23;96106.00;;;16.88;64.66
48386;BME280;34644;47.964;7.982;2023-04-22T20:31:25;96112.09;;;16.88;64.67
48386;BME280;34644;47.964;7.982;2023-04-22T20:38:26;96120.09;;;16.88;64.50
48386;BME280;34644;47.964;7.982;2023-04-22T20:45:29;96122.75;;;16.88;64.51
48386;BME280;34644;47.964;7.982;2023-04-22T20:52:30;96121.16;;;16.87;64.73
48386;BME280;34644;47.964;7.982;2023-04-22T20:59:30;96120.09;;;16.88;64.96
48386;BME280;34644;47.964;7.982;2023-04-22T21:06:31;96110.50;;;16.87;64.69
48386;BME280;34644;47.964;7.982;2023-04-22T21:13:33;96111.59;;;16.86;64.37
48386;BME280;34644;47.964;7.982;2023-04-22T21:20:39;96110.22;;;16.89;64.85
48386;BME280;34644;47.964;7.982;2023-04-22T21:27:42;96115.84;;;16.87;64.38
48386;BME280;34644;47.964;7.982;2023-04-22T21:34:42;96121.97;;;16.88;64.37
48386;BME280;34644;47.964;7.982;2023-04-22T21:41:42;96126.47;;;16.87;64.30
48386;BME280;34644;47.964;7.982;2023-04-22T21:48:43;96121.16;;;16.87;64.43
48386;BME280;34644;47.964;7.982;2023-04-22T21:55:44;96131.50;;;16.89;64.33
48386;BME280;34644;47.964;7.982;2023-04-22T22:02:44;96127.28;;;16.88;64.39
48386;BME280;34644;47.964;7.982;2023-04-22T22:09:45;96131.81;;;16.87;64.65
48386;BME280;34644;47.964;7.982;2023-04-22T22:16:45;96145.09;;;16.87;64.46
48386;BME280;34644;47.964;7.982;2023-04-22T22:23:46;96142.44;;;16.87;64.50
48386;BME280;34644;47.964;7.982;2023-04-22T22:30:46;96150.44;;;16.87;64.72
48386;BME280;34644;47.964;7.982;2023-04-22T22:37:46;96153.09;;;16.87;64.56
48386;BME280;34644;47.964;7.982;2023-04-22T22:44:47;96152.03;;;16.88;65.07
48386;BME280;34644;47.964;7.982;2023-04-22T22:51:47;96150.44;;;16.87;64.94
48386;BME280;34644;47.964;7.982;2023-04-22T22:58:47;96156.56;;;16.88;64.86
48386;BME280;34644;47.964;7.982;2023-04-22T23:05:48;96157.84;;;16.90;65.13
48386;BME280;34644;47.964;7.982;2023-04-22T23:12:48;96164.25;;;16.89;65.08
48386;BME280;34644;47.964;7.982;2023-04-22T23:19:49;96166.94;;;16.89;65.08
48386;BME280;34644;47.964;7.982;2023-04-22T23:26:51;96166.94;;;16.89;65.08
48386;BME280;34644;47.964;7.982;2023-04-22T23:33:51;96163.16;;;16.90;65.21
48386;BME280;34644;47.964;7.982;2023-04-22T23:40:54;96152.53;;;16.90;65.17
48386;BME280;34644;47.964;7.982;2023-04-22T23:47:54;96158.38;;;16.92;65.19
48386;BME280;34644;47.964;7.982;2023-04-22T23:54:55;96154.13;;;16.91;65.36
